sensor_id;sensor_type;location;lat;lon;timestamp;P1;durP1;ratioP1;P2;durP2;ratioP2
43817;SDS011;29868;47.360;18.984;2023-03-05T00:01:07;15.95;;;7.28;;
43817;SDS011;29868;47.360;18.984;2023-03-05T00:03:34;14.20;;;7.07;;
43817;SDS011;29868;47.360;18.984;2023-03-05T00:06:00;16.38;;;7.32;;
43817;SDS011;29868;47.360;18.984;2023-03-05T00:08:26;15.68;;;8.20;;
43817;SDS011;29868;47.360;18.984;2023-03-05T00:11:00;14.90;;;8.18;;
43817;SDS011;29868;47.360;18.984;2023-03-05T00:13:27;13.90;;;7.72;;
43817;SDS011;29868;47.360;18.984;2023-03-05T00:15:53;18.33;;;7.70;;
43817;SDS011;29868;47.360;18.984;2023-03-05T00:18:18;15.93;;;7.80;;
43817;SDS011;29868;47.360;18.984;2023-03-05T00:20:44;15.38;;;8.20;;
43817;SDS011;29868;47.360;18.984;2023-03-05T00:23:10;18.67;;;8.82;;
43817;SDS011;29868;47.360;18.984;2023-03-05T00:25:36;15.73;;;8.55;;
43817;SDS011;29868;47.360;18.984;2023-03-05T00:28:03;16.00;;;8.25;;
43817;SDS011;29868;47.360;18.984;2023-03-05T00:30:29;17.27;;;8.95;;
43817;SDS011;29868;47.360;18.984;2023-03-05T00:32:55;18.13;;;8.55;;
43817;SDS011;29868;47.360;18.984;2023-03-05T00:35:21;17.08;;;8.63;;
43817;SDS011;29868;47.360;18.984;2023-03-05T00:37:46;16.08;;;8.85;;
43817;SDS011;29868;47.360;18.984;2023-03-05T00:40:12;17.45;;;8.95;;
43817;SDS011;29868;47.360;18.984;2023-03-05T00:42:37;15.73;;;9.00;;
43817;SDS011;29868;47.360;18.984;2023-03-05T00:45:06;17.92;;;9.05;;
43817;SDS011;29868;47.360;18.984;2023-03-05T00:47:33;17.92;;;9.02;;
43817;SDS011;29868;47.360;18.984;2023-03-05T00:49:59;17.13;;;9.13;;
43817;SDS011;29868;47.360;18.984;2023-03-05T00:52:25;16.98;;;9.15;;
43817;SDS011;29868;47.360;18.984;2023-03-05T00:54:51;14.90;;;8.02;;
43817;SDS011;29868;47.360;18.984;2023-03-05T00:57:16;15.45;;;8.27;;
43817;SDS011;29868;47.360;18.984;2023-03-05T00:59:42;16.25;;;8.68;;
43817;SDS011;29868;47.360;18.984;2023-03-05T01:02:07;19.17;;;9.10;;
43817;SDS011;29868;47.360;18.984;2023-03-05T01:04:32;17.08;;;8.93;;
43817;SDS011;29868;47.360;18.984;2023-03-05T01:06:58;15.85;;;8.52;;
43817;SDS011;29868;47.360;18.984;2023-03-05T01:09:23;17.08;;;8.52;;
43817;SDS011;29868;47.360;18.984;2023-03-05T01:11:52;16.05;;;8.50;;
43817;SDS011;29868;47.360;18.984;2023-03-05T01:14:19;18.17;;;9.25;;
43817;SDS011;29868;47.360;18.984;2023-03-05T01:16:45;19.45;;;9.45;;
43817;SDS011;29868;47.360;18.984;2023-03-05T01:19:11;18.85;;;8.95;;
43817;SDS011;29868;47.360;18.984;2023-03-05T01:21:36;17.50;;;8.63;;
43817;SDS011;29868;47.360;18.984;2023-03-05T01:24:02;18.13;;;8.88;;
43817;SDS011;29868;47.360;18.984;2023-03-05T01:26:28;16.25;;;8.43;;
43817;SDS011;29868;47.360;18.984;2023-03-05T01:28:54;17.50;;;8.23;;
43817;SDS011;29868;47.360;18.984;2023-03-05T01:31:19;17.92;;;8.80;;
43817;SDS011;29868;47.360;18.984;2023-03-05T01:33:45;16.15;;;7.85;;
43817;SDS011;29868;47.360;18.984;2023-03-05T01:36:12;15.55;;;8.38;;
43817;SDS011;29868;47.360;18.984;2023-03-05T01:38:44;12.65;;;7.15;;
43817;SDS011;29868;47.360;18.984;2023-03-05T01:41:11;15.98;;;7.78;;
43817;SDS011;29868;47.360;18.984;2023-03-05T01:43:37;16.48;;;8.43;;
43817;SDS011;29868;47.360;18.984;2023-03-05T01:52:24;16.10;;;8.05;;
43817;SDS011;29868;47.360;18.984;2023-03-05T01:54:32;17.98;;;8.52;;
43817;SDS011;29868;47.360;18.984;2023-03-05T01:57:03;17.98;;;8.40;;
43817;SDS011;29868;47.360;18.984;2023-03-05T01:59:35;14.95;;;7.70;;
43817;SDS011;29868;47.360;18.984;2023-03-05T02:02:03;19.95;;;9.25;;
43817;SDS011;29868;47.360;18.984;2023-03-05T02:04:35;17.23;;;8.32;;
43817;SDS011;29868;47.360;18.984;2023-03-05T02:07:05;16.02;;;8.85;;
43817;SDS011;29868;47.360;18.984;2023-03-05T02:09:31;14.95;;;7.75;;
43817;SDS011;29868;47.360;18.984;2023-03-05T02:11:56;16.42;;;8.30;;
43817;SDS011;29868;47.360;18.984;2023-03-05T02:14:22;15.50;;;8.70;;
43817;SDS011;29868;47.360;18.984;2023-03-05T02:16:49;18.67;;;9.32;;
43817;SDS011;29868;47.360;18.984;2023-03-05T02:19:15;17.50;;;8.25;;
43817;SDS011;29868;47.360;18.984;2023-03-05T02:21:42;16.17;;;8.27;;
43817;SDS011;29868;47.360;18.984;2023-03-05T02:24:12;15.30;;;8.23;;
43817;SDS011;29868;47.360;18.984;2023-03-05T02:26:39;15.20;;;8.43;;
43817;SDS011;29868;47.360;18.984;2023-03-05T02:29:07;15.10;;;8.00;;
43817;SDS011;29868;47.360;18.984;2023-03-05T02:31:34;20.13;;;9.05;;
43817;SDS011;29868;47.360;18.984;2023-03-05T02:34:01;18.63;;;8.82;;
43817;SDS011;29868;47.360;18.984;2023-03-05T02:36:27;16.58;;;8.68;;
43817;SDS011;29868;47.360;18.984;2023-03-05T02:38:52;18.27;;;9.00;;
43817;SDS011;29868;47.360;18.984;2023-03-05T02:41:20;19.52;;;9.55;;
43817;SDS011;29868;47.360;18.984;2023-03-05T02:43:47;17.45;;;8.57;;
43817;SDS011;29868;47.360;18.984;2023-03-05T02:46:12;15.48;;;8.10;;
43817;SDS011;29868;47.360;18.984;2023-03-05T02:48:37;19.65;;;9.40;;
43817;SDS011;29868;47.360;18.984;2023-03-05T02:51:03;17.40;;;9.45;;
43817;SDS011;29868;47.360;18.984;2023-03-05T02:53:30;19.20;;;8.82;;
43817;SDS011;29868;47.360;18.984;2023-03-05T02:55:56;15.70;;;8.50;;
43817;SDS011;29868;47.360;18.984;2023-03-05T02:58:21;15.27;;;8.13;;
43817;SDS011;29868;47.360;18.984;2023-03-05T03:00:47;15.18;;;8.25;;
43817;SDS011;29868;47.360;18.984;2023-03-05T03:03:12;16.02;;;8.95;;
43817;SDS011;29868;47.360;18.984;2023-03-05T03:05:38;15.05;;;8.30;;
43817;SDS011;29868;47.360;18.984;2023-03-05T03:08:03;16.73;;;8.07;;
43817;SDS011;29868;47.360;18.984;2023-03-05T03:10:29;16.58;;;8.18;;
43817;SDS011;29868;47.360;18.984;2023-03-05T03:12:54;17.98;;;8.95;;
43817;SDS011;29868;47.360;18.984;2023-03-05T03:15:20;17.88;;;8.95;;
43817;SDS011;29868;47.360;18.984;2023-03-05T03:17:45;17.00;;;9.27;;
43817;SDS011;29868;47.360;18.984;2023-03-05T03:20:12;18.38;;;8.90;;
43817;SDS011;29868;47.360;18.984;2023-03-05T03:22:40;20.02;;;9.38;;
43817;SDS011;29868;47.360;18.984;2023-03-05T03:25:08;19.40;;;9.05;;
43817;SDS011;29868;47.360;18.984;2023-03-05T03:27:34;16.48;;;8.57;;
43817;SDS011;29868;47.360;18.984;2023-03-05T03:30:00;15.27;;;7.88;;
43817;SDS011;29868;47.360;18.984;2023-03-05T03:32:29;20.02;;;8.65;;
43817;SDS011;29868;47.360;18.984;2023-03-05T03:34:55;18.35;;;8.52;;
43817;SDS011;29868;47.360;18.984;2023-03-05T03:37:20;19.55;;;8.98;;
43817;SDS011;29868;47.360;18.984;2023-03-05T03:39:46;16.08;;;8.30;;
43817;SDS011;29868;47.360;18.984;2023-03-05T03:42:11;16.85;;;9.00;;
43817;SDS011;29868;47.360;18.984;2023-03-05T03:44:36;17.38;;;8.38;;
43817;SDS011;29868;47.360;18.984;2023-03-05T03:47:02;16.65;;;8.85;;
43817;SDS011;29868;47.360;18.984;2023-03-05T03:49:27;17.98;;;8.60;;
43817;SDS011;29868;47.360;18.984;2023-03-05T03:51:53;16.75;;;9.10;;
43817;SDS011;29868;47.360;18.984;2023-03-05T03:54:20;16.30;;;9.00;;
43817;SDS011;29868;47.360;18.984;2023-03-05T03:56:46;17.05;;;8.60;;
43817;SDS011;29868;47.360;18.984;2023-03-05T03:59:11;15.90;;;8.57;;
43817;SDS011;29868;47.360;18.984;2023-03-05T04:01:37;16.52;;;8.25;;
43817;SDS011;29868;47.360;18.984;2023-03-05T04:04:03;18.48;;;9.50;;
43817;SDS011;29868;47.360;18.984;2023-03-05T04:06:30;20.05;;;10.00;;
43817;SDS011;29868;47.360;18.984;2023-03-05T04:08:55;21.27;;;9.90;;
43817;SDS011;29868;47.360;18.984;2023-03-05T04:11:21;18.55;;;9.95;;
43817;SDS011;29868;47.360;18.984;2023-03-05T04:13:46;20.23;;;10.63;;
43817;SDS011;29868;47.360;18.984;2023-03-05T04:16:13;26.15;;;11.55;;
43817;SDS011;29868;47.360;18.984;2023-03-05T04:18:39;27.25;;;12.73;;
43817;SDS011;29868;47.360;18.984;2023-03-05T04:21:05;32.50;;;13.30;;
43817;SDS011;29868;47.360;18.984;2023-03-05T04:23:31;26.58;;;12.75;;
43817;SDS011;29868;47.360;18.984;2023-03-05T04:25:57;25.10;;;12.13;;
43817;SDS011;29868;47.360;18.984;2023-03-05T04:28:23;25.40;;;11.55;;
43817;SDS011;29868;47.360;18.984;2023-03-05T04:30:48;22.23;;;10.30;;
43817;SDS011;29868;47.360;18.984;2023-03-05T04:33:14;19.63;;;10.38;;
43817;SDS011;29868;47.360;18.984;2023-03-05T04:35:40;22.08;;;10.13;;
43817;SDS011;29868;47.360;18.984;2023-03-05T04:38:05;21.10;;;9.95;;
43817;SDS011;29868;47.360;18.984;2023-03-05T04:40:31;18.73;;;10.15;;
43817;SDS011;29868;47.360;18.984;2023-03-05T04:42:57;18.58;;;9.80;;
43817;SDS011;29868;47.360;18.984;2023-03-05T04:45:22;21.60;;;9.95;;
43817;SDS011;29868;47.360;18.984;2023-03-05T04:47:48;18.45;;;10.70;;
43817;SDS011;29868;47.360;18.984;2023-03-05T04:50:13;21.75;;;9.48;;
43817;SDS011;29868;47.360;18.984;2023-03-05T04:52:39;17.50;;;9.60;;
43817;SDS011;29868;47.360;18.984;2023-03-05T04:55:06;17.02;;;8.85;;
43817;SDS011;29868;47.360;18.984;2023-03-05T04:57:33;19.23;;;9.18;;
43817;SDS011;29868;47.360;18.984;2023-03-05T04:59:59;19.15;;;9.82;;
43817;SDS011;29868;47.360;18.984;2023-03-05T05:02:24;18.40;;;9.63;;
43817;SDS011;29868;47.360;18.984;2023-03-05T05:04:53;18.77;;;9.32;;
43817;SDS011;29868;47.360;18.984;2023-03-05T05:07:19;19.65;;;9.68;;
43817;SDS011;29868;47.360;18.984;2023-03-05T05:09:45;24.92;;;9.50;;
43817;SDS011;29868;47.360;18.984;2023-03-05T05:12:10;20.65;;;10.32;;
43817;SDS011;29868;47.360;18.984;2023-03-05T05:14:36;21.05;;;10.90;;
43817;SDS011;29868;47.360;18.984;2023-03-05T05:17:01;21.55;;;11.88;;
43817;SDS011;29868;47.360;18.984;2023-03-05T05:19:32;19.35;;;11.35;;
43817;SDS011;29868;47.360;18.984;2023-03-05T05:21:58;19.98;;;11.07;;
43817;SDS011;29868;47.360;18.984;2023-03-05T05:24:24;18.25;;;9.88;;
43817;SDS011;29868;47.360;18.984;2023-03-05T05:26:49;19.70;;;9.80;;
43817;SDS011;29868;47.360;18.984;2023-03-05T05:29:15;19.38;;;10.70;;
43817;SDS011;29868;47.360;18.984;2023-03-05T05:31:40;21.27;;;10.13;;
43817;SDS011;29868;47.360;18.984;2023-03-05T05:34:06;19.60;;;9.90;;
43817;SDS011;29868;47.360;18.984;2023-03-05T05:36:31;17.73;;;9.60;;
43817;SDS011;29868;47.360;18.984;2023-03-05T05:38:57;18.35;;;9.57;;
43817;SDS011;29868;47.360;18.984;2023-03-05T05:41:22;17.90;;;9.68;;
43817;SDS011;29868;47.360;18.984;2023-03-05T05:43:48;22.13;;;11.48;;
43817;SDS011;29868;47.360;18.984;2023-03-05T05:46:15;31.95;;;16.55;;
43817;SDS011;29868;47.360;18.984;2023-03-05T05:48:42;27.75;;;14.73;;
43817;SDS011;29868;47.360;18.984;2023-03-05T05:51:09;22.55;;;12.27;;
43817;SDS011;29868;47.360;18.984;2023-03-05T05:53:42;17.38;;;10.45;;
43817;SDS011;29868;47.360;18.984;2023-03-05T05:56:09;18.63;;;8.80;;
43817;SDS011;29868;47.360;18.984;2023-03-05T05:58:36;30.80;;;17.33;;
43817;SDS011;29868;47.360;18.984;2023-03-05T06:01:10;30.92;;;15.85;;
43817;SDS011;29868;47.360;18.984;2023-03-05T06:03:36;20.05;;;10.30;;
43817;SDS011;29868;47.360;18.984;2023-03-05T06:06:02;17.70;;;8.70;;
43817;SDS011;29868;47.360;18.984;2023-03-05T06:08:27;16.83;;;9.20;;
43817;SDS011;29868;47.360;18.984;2023-03-05T06:10:53;18.52;;;9.50;;
43817;SDS011;29868;47.360;18.984;2023-03-05T06:13:19;17.92;;;9.75;;
43817;SDS011;29868;47.360;18.984;2023-03-05T06:15:44;17.92;;;9.20;;
43817;SDS011;29868;47.360;18.984;2023-03-05T06:18:18;17.85;;;9.05;;
43817;SDS011;29868;47.360;18.984;2023-03-05T06:20:44;18.52;;;9.48;;
43817;SDS011;29868;47.360;18.984;2023-03-05T06:23:09;17.60;;;8.20;;
43817;SDS011;29868;47.360;18.984;2023-03-05T06:25:34;19.45;;;9.13;;
43817;SDS011;29868;47.360;18.984;2023-03-05T06:28:01;16.52;;;8.45;;
43817;SDS011;29868;47.360;18.984;2023-03-05T06:30:27;19.38;;;9.10;;
43817;SDS011;29868;47.360;18.984;2023-03-05T06:32:52;18.83;;;9.48;;
43817;SDS011;29868;47.360;18.984;2023-03-05T06:35:17;19.67;;;9.32;;
43817;SDS011;29868;47.360;18.984;2023-03-05T06:37:43;18.63;;;9.32;;
43817;SDS011;29868;47.360;18.984;2023-03-05T06:40:09;20.60;;;9.73;;
43817;SDS011;29868;47.360;18.984;2023-03-05T06:42:35;18.60;;;9.55;;
43817;SDS011;29868;47.360;18.984;2023-03-05T06:45:00;21.38;;;9.45;;
43817;SDS011;29868;47.360;18.984;2023-03-05T06:47:26;22.17;;;11.15;;
43817;SDS011;29868;47.360;18.984;2023-03-05T06:49:51;18.85;;;10.60;;
43817;SDS011;29868;47.360;18.984;2023-03-05T06:52:17;17.92;;;9.07;;
43817;SDS011;29868;47.360;18.984;2023-03-05T06:54:42;18.10;;;8.85;;
43817;SDS011;29868;47.360;18.984;2023-03-05T06:57:08;18.85;;;8.65;;
43817;SDS011;29868;47.360;18.984;2023-03-05T06:59:34;19.27;;;9.40;;
43817;SDS011;29868;47.360;18.984;2023-03-05T07:01:59;17.05;;;9.13;;
43817;SDS011;29868;47.360;18.984;2023-03-05T07:04:25;18.73;;;9.60;;
43817;SDS011;29868;47.360;18.984;2023-03-05T07:06:50;20.58;;;9.70;;
43817;SDS011;29868;47.360;18.984;2023-03-05T07:09:16;22.33;;;10.18;;
43817;SDS011;29868;47.360;18.984;2023-03-05T07:11:41;15.90;;;8.00;;
43817;SDS011;29868;47.360;18.984;2023-03-05T07:14:07;17.73;;;8.88;;
43817;SDS011;29868;47.360;18.984;2023-03-05T07:16:32;20.02;;;10.07;;
43817;SDS011;29868;47.360;18.984;2023-03-05T07:19:01;17.95;;;9.35;;
43817;SDS011;29868;47.360;18.984;2023-03-05T07:21:28;17.95;;;8.55;;
43817;SDS011;29868;47.360;18.984;2023-03-05T07:23:57;18.27;;;9.02;;
43817;SDS011;29868;47.360;18.984;2023-03-05T07:26:25;16.67;;;9.10;;
43817;SDS011;29868;47.360;18.984;2023-03-05T07:28:52;17.80;;;10.15;;
43817;SDS011;29868;47.360;18.984;2023-03-05T07:31:19;19.90;;;9.05;;
43817;SDS011;29868;47.360;18.984;2023-03-05T07:33:47;17.05;;;9.35;;
43817;SDS011;29868;47.360;18.984;2023-03-05T07:36:14;19.23;;;9.50;;
43817;SDS011;29868;47.360;18.984;2023-03-05T07:38:40;23.13;;;10.25;;
43817;SDS011;29868;47.360;18.984;2023-03-05T07:41:07;19.98;;;9.68;;
43817;SDS011;29868;47.360;18.984;2023-03-05T07:43:37;22.45;;;12.23;;
43817;SDS011;29868;47.360;18.984;2023-03-05T07:46:04;23.10;;;12.18;;
43817;SDS011;29868;47.360;18.984;2023-03-05T07:48:35;26.45;;;13.27;;
43817;SDS011;29868;47.360;18.984;2023-03-05T07:51:02;22.52;;;11.20;;
43817;SDS011;29868;47.360;18.984;2023-03-05T07:53:29;25.98;;;12.52;;
43817;SDS011;29868;47.360;18.984;2023-03-05T07:55:54;20.17;;;9.80;;
43817;SDS011;29868;47.360;18.984;2023-03-05T07:58:20;24.77;;;11.52;;
43817;SDS011;29868;47.360;18.984;2023-03-05T08:00:45;25.83;;;12.57;;
43817;SDS011;29868;47.360;18.984;2023-03-05T08:03:10;26.20;;;13.55;;
43817;SDS011;29868;47.360;18.984;2023-03-05T08:05:39;24.02;;;12.43;;
43817;SDS011;29868;47.360;18.984;2023-03-05T08:08:05;22.33;;;11.07;;
43817;SDS011;29868;47.360;18.984;2023-03-05T08:10:32;19.50;;;10.40;;
43817;SDS011;29868;47.360;18.984;2023-03-05T08:12:57;20.95;;;11.25;;
43817;SDS011;29868;47.360;18.984;2023-03-05T08:15:23;21.48;;;10.68;;
43817;SDS011;29868;47.360;18.984;2023-03-05T08:17:48;20.63;;;10.45;;
43817;SDS011;29868;47.360;18.984;2023-03-05T08:20:14;21.85;;;9.88;;
43817;SDS011;29868;47.360;18.984;2023-03-05T08:22:39;19.00;;;9.48;;
43817;SDS011;29868;47.360;18.984;2023-03-05T08:25:05;17.55;;;8.98;;
43817;SDS011;29868;47.360;18.984;2023-03-05T08:27:31;21.05;;;10.27;;
43817;SDS011;29868;47.360;18.984;2023-03-05T08:29:57;20.38;;;9.65;;
43817;SDS011;29868;47.360;18.984;2023-03-05T08:32:22;19.02;;;9.32;;
43817;SDS011;29868;47.360;18.984;2023-03-05T08:34:48;21.90;;;10.45;;
43817;SDS011;29868;47.360;18.984;2023-03-05T08:37:13;18.65;;;9.55;;
43817;SDS011;29868;47.360;18.984;2023-03-05T08:39:39;18.45;;;9.48;;
43817;SDS011;29868;47.360;18.984;2023-03-05T08:42:04;17.15;;;9.15;;
43817;SDS011;29868;47.360;18.984;2023-03-05T08:44:30;20.85;;;10.70;;
43817;SDS011;29868;47.360;18.984;2023-03-05T08:46:55;27.08;;;13.25;;
43817;SDS011;29868;47.360;18.984;2023-03-05T08:49:21;32.13;;;16.02;;
43817;SDS011;29868;47.360;18.984;2023-03-05T08:51:46;27.20;;;14.30;;
43817;SDS011;29868;47.360;18.984;2023-03-05T08:54:12;20.48;;;10.35;;
43817;SDS011;29868;47.360;18.984;2023-03-05T08:56:38;23.77;;;11.50;;
43817;SDS011;29868;47.360;18.984;2023-03-05T08:59:03;20.17;;;10.18;;
43817;SDS011;29868;47.360;18.984;2023-03-05T09:01:29;17.83;;;8.93;;
43817;SDS011;29868;47.360;18.984;2023-03-05T09:03:59;25.67;;;13.75;;
43817;SDS011;29868;47.360;18.984;2023-03-05T09:06:25;22.20;;;11.75;;
43817;SDS011;29868;47.360;18.984;2023-03-05T09:08:52;21.70;;;9.80;;
43817;SDS011;29868;47.360;18.984;2023-03-05T09:11:17;26.23;;;11.38;;
43817;SDS011;29868;47.360;18.984;2023-03-05T09:13:43;20.67;;;10.13;;
43817;SDS011;29868;47.360;18.984;2023-03-05T09:16:13;22.63;;;10.60;;
43817;SDS011;29868;47.360;18.984;2023-03-05T09:18:41;18.60;;;9.45;;
43817;SDS011;29868;47.360;18.984;2023-03-05T09:21:08;16.45;;;8.23;;
43817;SDS011;29868;47.360;18.984;2023-03-05T09:23:40;21.42;;;10.00;;
43817;SDS011;29868;47.360;18.984;2023-03-05T09:26:07;20.25;;;9.60;;
43817;SDS011;29868;47.360;18.984;2023-03-05T09:28:33;16.65;;;8.63;;
43817;SDS011;29868;47.360;18.984;2023-03-05T09:31:02;19.65;;;9.20;;
43817;SDS011;29868;47.360;18.984;2023-03-05T09:33:30;17.77;;;8.43;;
43817;SDS011;29868;47.360;18.984;2023-03-05T09:35:56;22.00;;;9.88;;
43817;SDS011;29868;47.360;18.984;2023-03-05T09:38:21;17.73;;;9.20;;
43817;SDS011;29868;47.360;18.984;2023-03-05T09:51:41;24.10;;;11.82;;
43817;SDS011;29868;47.360;18.984;2023-03-05T09:54:16;19.23;;;9.63;;
43817;SDS011;29868;47.360;18.984;2023-03-05T09:56:46;19.30;;;9.13;;
43817;SDS011;29868;47.360;18.984;2023-03-05T09:59:17;18.48;;;8.82;;
43817;SDS011;29868;47.360;18.984;2023-03-05T10:01:47;18.70;;;8.95;;
43817;SDS011;29868;47.360;18.984;2023-03-05T10:04:27;15.65;;;8.35;;
43817;SDS011;29868;47.360;18.984;2023-03-05T10:07:20;16.70;;;9.18;;
43817;SDS011;29868;47.360;18.984;2023-03-05T10:09:53;21.77;;;10.88;;
43817;SDS011;29868;47.360;18.984;2023-03-05T10:12:25;20.67;;;9.70;;
43817;SDS011;29868;47.360;18.984;2023-03-05T10:20:47;20.17;;;9.65;;
43817;SDS011;29868;47.360;18.984;2023-03-05T10:23:22;24.45;;;10.85;;
43817;SDS011;29868;47.360;18.984;2023-03-05T10:46:58;17.70;;;8.75;;
43817;SDS011;29868;47.360;18.984;2023-03-05T10:49:31;13.57;;;7.38;;
43817;SDS011;29868;47.360;18.984;2023-03-05T10:52:13;16.08;;;8.25;;
43817;SDS011;29868;47.360;18.984;2023-03-05T10:54:42;14.35;;;7.00;;
43817;SDS011;29868;47.360;18.984;2023-03-05T11:00:27;16.25;;;7.13;;
43817;SDS011;29868;47.360;18.984;2023-03-05T11:03:03;15.15;;;7.57;;
43817;SDS011;29868;47.360;18.984;2023-03-05T11:05:38;13.02;;;6.82;;
43817;SDS011;29868;47.360;18.984;2023-03-05T11:08:21;13.75;;;6.93;;
43817;SDS011;29868;47.360;18.984;2023-03-05T11:11:10;14.60;;;6.50;;
43817;SDS011;29868;47.360;18.984;2023-03-05T11:13:51;14.45;;;7.15;;
43817;SDS011;29868;47.360;18.984;2023-03-05T11:18:47;13.23;;;7.10;;
43817;SDS011;29868;47.360;18.984;2023-03-05T11:21:20;11.55;;;6.05;;
43817;SDS011;29868;47.360;18.984;2023-03-05T11:24:04;13.63;;;7.18;;
43817;SDS011;29868;47.360;18.984;2023-03-05T11:26:30;14.05;;;6.95;;
43817;SDS011;29868;47.360;18.984;2023-03-05T11:28:59;15.93;;;7.25;;
43817;SDS011;29868;47.360;18.984;2023-03-05T11:31:29;14.95;;;7.70;;
43817;SDS011;29868;47.360;18.984;2023-03-05T11:36:41;11.90;;;5.88;;
43817;SDS011;29868;47.360;18.984;2023-03-05T11:39:23;14.75;;;6.43;;
43817;SDS011;29868;47.360;18.984;2023-03-05T11:41:57;13.45;;;6.80;;
43817;SDS011;29868;47.360;18.984;2023-03-05T11:47:03;13.73;;;6.57;;
43817;SDS011;29868;47.360;18.984;2023-03-05T11:49:47;11.55;;;6.15;;
43817;SDS011;29868;47.360;18.984;2023-03-05T11:57:44;10.48;;;5.90;;
43817;SDS011;29868;47.360;18.984;2023-03-05T12:00:18;10.85;;;4.68;;
43817;SDS011;29868;47.360;18.984;2023-03-05T12:02:49;11.82;;;6.05;;
43817;SDS011;29868;47.360;18.984;2023-03-05T12:05:17;9.90;;;5.28;;
43817;SDS011;29868;47.360;18.984;2023-03-05T12:07:44;9.80;;;5.28;;
43817;SDS011;29868;47.360;18.984;2023-03-05T12:10:23;14.18;;;6.63;;
43817;SDS011;29868;47.360;18.984;2023-03-05T12:12:57;13.82;;;7.20;;
43817;SDS011;29868;47.360;18.984;2023-03-05T12:15:37;10.88;;;5.88;;
43817;SDS011;29868;47.360;18.984;2023-03-05T12:24:31;12.48;;;6.57;;
43817;SDS011;29868;47.360;18.984;2023-03-05T12:31:54;13.80;;;6.22;;
43817;SDS011;29868;47.360;18.984;2023-03-05T12:37:55;10.88;;;5.78;;
43817;SDS011;29868;47.360;18.984;2023-03-05T12:47:33;10.70;;;5.40;;
43817;SDS011;29868;47.360;18.984;2023-03-05T12:52:53;9.75;;;5.25;;
43817;SDS011;29868;47.360;18.984;2023-03-05T12:55:23;9.45;;;4.75;;
43817;SDS011;29868;47.360;18.984;2023-03-05T12:57:57;10.50;;;4.80;;
43817;SDS011;29868;47.360;18.984;2023-03-05T13:00:39;8.63;;;4.50;;
43817;SDS011;29868;47.360;18.984;2023-03-05T13:03:20;10.75;;;5.80;;
43817;SDS011;29868;47.360;18.984;2023-03-05T13:06:19;9.57;;;4.63;;
43817;SDS011;29868;47.360;18.984;2023-03-05T13:09:02;13.60;;;5.75;;
43817;SDS011;29868;47.360;18.984;2023-03-05T13:11:33;9.55;;;4.93;;
43817;SDS011;29868;47.360;18.984;2023-03-05T13:14:02;8.95;;;4.82;;
43817;SDS011;29868;47.360;18.984;2023-03-05T13:16:29;11.65;;;4.75;;
43817;SDS011;29868;47.360;18.984;2023-03-05T13:19:03;12.95;;;6.38;;
43817;SDS011;29868;47.360;18.984;2023-03-05T13:21:40;11.48;;;5.20;;
43817;SDS011;29868;47.360;18.984;2023-03-05T13:24:12;11.05;;;5.72;;
43817;SDS011;29868;47.360;18.984;2023-03-05T13:26:41;10.43;;;5.05;;
43817;SDS011;29868;47.360;18.984;2023-03-05T13:29:17;10.23;;;5.35;;
43817;SDS011;29868;47.360;18.984;2023-03-05T13:32:00;12.93;;;5.22;;
43817;SDS011;29868;47.360;18.984;2023-03-05T13:34:40;9.95;;;5.40;;
43817;SDS011;29868;47.360;18.984;2023-03-05T13:37:18;9.88;;;4.93;;
43817;SDS011;29868;47.360;18.984;2023-03-05T13:42:28;12.02;;;5.25;;
43817;SDS011;29868;47.360;18.984;2023-03-05T13:45:00;10.95;;;5.00;;
43817;SDS011;29868;47.360;18.984;2023-03-05T13:47:32;11.30;;;5.25;;
43817;SDS011;29868;47.360;18.984;2023-03-05T13:50:03;7.88;;;3.17;;
43817;SDS011;29868;47.360;18.984;2023-03-05T13:52:32;7.53;;;3.70;;
43817;SDS011;29868;47.360;18.984;2023-03-05T13:54:59;18.27;;;7.88;;
43817;SDS011;29868;47.360;18.984;2023-03-05T13:57:33;14.90;;;6.72;;
43817;SDS011;29868;47.360;18.984;2023-03-05T14:00:05;9.27;;;4.53;;
43817;SDS011;29868;47.360;18.984;2023-03-05T14:02:50;11.68;;;5.68;;
43817;SDS011;29868;47.360;18.984;2023-03-05T14:05:15;12.27;;;5.95;;
43817;SDS011;29868;47.360;18.984;2023-03-05T14:07:41;12.98;;;5.75;;
43817;SDS011;29868;47.360;18.984;2023-03-05T14:12:54;10.88;;;4.90;;
43817;SDS011;29868;47.360;18.984;2023-03-05T14:15:28;11.57;;;5.78;;
43817;SDS011;29868;47.360;18.984;2023-03-05T14:20:35;14.52;;;6.57;;
43817;SDS011;29868;47.360;18.984;2023-03-05T14:23:01;14.38;;;5.78;;
43817;SDS011;29868;47.360;18.984;2023-03-05T14:28:51;13.88;;;5.57;;
43817;SDS011;29868;47.360;18.984;2023-03-05T14:31:29;12.85;;;6.13;;
43817;SDS011;29868;47.360;18.984;2023-03-05T14:34:12;12.93;;;6.70;;
43817;SDS011;29868;47.360;18.984;2023-03-05T14:37:06;11.93;;;5.22;;
43817;SDS011;29868;47.360;18.984;2023-03-05T14:39:43;15.60;;;6.65;;
43817;SDS011;29868;47.360;18.984;2023-03-05T14:45:03;11.90;;;5.55;;
43817;SDS011;29868;47.360;18.984;2023-03-05T14:47:35;12.63;;;6.07;;
43817;SDS011;29868;47.360;18.984;2023-03-05T14:50:01;11.95;;;4.85;;
43817;SDS011;29868;47.360;18.984;2023-03-05T14:52:27;8.57;;;3.72;;
43817;SDS011;29868;47.360;18.984;2023-03-05T14:54:52;24.20;;;11.15;;
43817;SDS011;29868;47.360;18.984;2023-03-05T14:57:20;25.13;;;11.90;;
43817;SDS011;29868;47.360;18.984;2023-03-05T14:59:47;17.15;;;8.10;;
43817;SDS011;29868;47.360;18.984;2023-03-05T15:02:21;18.73;;;9.73;;
43817;SDS011;29868;47.360;18.984;2023-03-05T15:04:48;13.45;;;7.43;;
43817;SDS011;29868;47.360;18.984;2023-03-05T15:07:28;14.95;;;7.38;;
43817;SDS011;29868;47.360;18.984;2023-03-05T15:09:55;13.77;;;6.03;;
43817;SDS011;29868;47.360;18.984;2023-03-05T15:12:21;12.20;;;5.40;;
43817;SDS011;29868;47.360;18.984;2023-03-05T15:14:49;10.63;;;5.28;;
43817;SDS011;29868;47.360;18.984;2023-03-05T15:17:17;13.10;;;7.30;;
43817;SDS011;29868;47.360;18.984;2023-03-05T15:19:45;12.60;;;7.05;;
43817;SDS011;29868;47.360;18.984;2023-03-05T15:22:11;12.60;;;6.00;;
43817;SDS011;29868;47.360;18.984;2023-03-05T15:24:37;11.20;;;5.82;;
43817;SDS011;29868;47.360;18.984;2023-03-05T15:27:03;13.77;;;5.80;;
43817;SDS011;29868;47.360;18.984;2023-03-05T15:29:30;12.15;;;5.25;;
43817;SDS011;29868;47.360;18.984;2023-03-05T15:31:56;11.70;;;6.20;;
43817;SDS011;29868;47.360;18.984;2023-03-05T15:34:21;12.73;;;6.40;;
43817;SDS011;29868;47.360;18.984;2023-03-05T15:36:46;11.57;;;5.60;;
43817;SDS011;29868;47.360;18.984;2023-03-05T15:39:12;9.55;;;4.60;;
43817;SDS011;29868;47.360;18.984;2023-03-05T15:41:37;11.52;;;6.57;;
43817;SDS011;29868;47.360;18.984;2023-03-05T15:44:03;14.13;;;7.35;;
43817;SDS011;29868;47.360;18.984;2023-03-05T15:46:28;14.63;;;7.63;;
43817;SDS011;29868;47.360;18.984;2023-03-05T15:48:54;14.10;;;7.35;;
43817;SDS011;29868;47.360;18.984;2023-03-05T15:51:19;18.73;;;9.05;;
43817;SDS011;29868;47.360;18.984;2023-03-05T15:53:45;14.18;;;6.72;;
43817;SDS011;29868;47.360;18.984;2023-03-05T15:56:14;22.42;;;6.90;;
43817;SDS011;29868;47.360;18.984;2023-03-05T15:58:40;11.13;;;5.07;;
43817;SDS011;29868;47.360;18.984;2023-03-05T16:01:07;10.30;;;4.68;;
43817;SDS011;29868;47.360;18.984;2023-03-05T16:03:34;9.73;;;5.38;;